KBUU Airport Information

Runway Information
Runway 01 Length 2477 ft width 130 ft
Elevation 773 ft Threshold 0 ft Heading 12
Runway 19 Length 2477 ft Width 130 ft
Elevation 775 ft Threshold 0 ft Heading 192
Runway 11 Length 4300 ft width 75 ft
Elevation 777 ft Threshold 0 ft Heading 109
Runway 29 Length 4300 ft Width 75 ft
Elevation 776 ft Threshold 0 ft Heading 289
Airport Frequencies
Type A/D Name MILWAUKEE Frequency 125.35 MHZ
Type AWOS Name AWOS 3 Frequency 114.5 MHZ
Type UNIC Name CTAF/UNICO Frequency 123.05 MHZ
Airport Navaids
Airport Weather Information & NOTAM
ADDS - METARS form results

(2028 UTC 26 March 2019)
Data provider http://aviationweather.gov/metar/data/
 
METAR text: KBUU 262015Z AUTO 24004KT 10SM CLR 07/M11 A3040 RMK AO2 T00701110
Conditions at: KBUU (BURLINGTON , WI, US) observed 2015 UTC 26 March 2019
Temperature: 7.0°C (45°F)
Dewpoint: -11.0°C (12°F) [RH = 26%]
Pressure (altimeter): 30.40 inches Hg (1029.5 mb)
Winds: from the WSW (240 degrees) at 5 MPH (4 knots; 2.1 m/s)
Visibility: 10 or more miles (16+ km)
Ceiling: at least 12,000 feet AGL
Clouds: sky clear below 12,000 feet AGL
Weather: automated observation with no human augmentation;
there may or may not be significant weather present at this time

METAR text: KBUU 261955Z AUTO 00000KT 10SM CLR 07/M11 A3041 RMK AO2 T00661107
Conditions at: KBUU (BURLINGTON , WI, US) observed 1955 UTC 26 March 2019
Temperature: 6.6°C (44°F)
Dewpoint: -10.7°C (13°F) [RH = 28%]
Pressure (altimeter): 30.41 inches Hg (1029.9 mb)
Winds: calm
Visibility: 10 or more miles (16+ km)
Ceiling: at least 12,000 feet AGL
Clouds: sky clear below 12,000 feet AGL
Weather: automated observation with no human augmentation;
there may or may not be significant weather present at this time

METAR text: KBUU 261935Z AUTO 24004KT 10SM CLR 07/M10 A3042 RMK AO2 T00671099
Conditions at: KBUU (BURLINGTON , WI, US) observed 1935 UTC 26 March 2019
Temperature: 6.7°C (44°F)
Dewpoint: -9.9°C (14°F) [RH = 29%]
Pressure (altimeter): 30.42 inches Hg (1030.2 mb)
Winds: from the WSW (240 degrees) at 5 MPH (4 knots; 2.1 m/s)
Visibility: 10 or more miles (16+ km)
Ceiling: at least 12,000 feet AGL
Clouds: sky clear below 12,000 feet AGL
Weather: automated observation with no human augmentation;
there may or may not be significant weather present at this time